Time;durP1;ratioP1;P1;durP2;ratioP2;P2;SDS_P1;SDS_P2;PMS_P1;PMS_P2;Temp;Humidity;BMP_temperature;BMP_pressure;BME280_temperature;BME280_humidity;BME280_pressure;Samples;Min_cycle;Max_cycle;Signal;HPM_P1;HPM_P2
2023/06/11 00:02:21;;;;;;;12.05;6.63;;;;;;;-144.87;100.00;61487.56;5017898;28;20559;-72
2023/06/11 00:04:49;;;;;;;12.65;7.25;;;;;;;-144.87;100.00;61487.56;4999627;28;20052;-70
2023/06/11 00:07:16;;;;;;;13.05;7.03;;;;;;;-144.87;100.00;61487.56;4993018;28;20042;-71
2023/06/11 00:09:43;;;;;;;18.90;8.45;;;;;;;-144.87;100.00;61487.56;4994458;28;20045;-68
2023/06/11 00:12:09;;;;;;;14.48;6.65;;;;;;;-144.87;100.00;61487.56;4987285;28;20124;-68
2023/06/11 00:14:35;;;;;;;10.80;7.53;;;;;;;-144.87;100.00;61487.56;5002964;28;20064;-69
2023/06/11 00:17:02;;;;;;;12.48;7.03;;;;;;;-144.87;100.00;61487.56;5002469;28;20056;-69
2023/06/11 00:19:30;;;;;;;12.80;7.10;;;;;;;-144.87;100.00;61487.56;4988506;28;20133;-69
2023/06/11 00:21:56;;;;;;;12.85;7.10;;;;;;;-144.87;100.00;61487.56;4994064;28;20399;-68
2023/06/11 00:24:25;;;;;;;11.98;6.90;;;;;;;-144.87;100.00;61487.56;4996606;28;20391;-69
2023/06/11 00:26:51;;;;;;;11.40;7.07;;;;;;;-144.87;100.00;61487.56;4992555;28;20465;-70
2023/06/11 00:29:17;;;;;;;11.63;7.32;;;;;;;-144.87;100.00;61487.56;5000076;28;20045;-71
2023/06/11 00:31:44;;;;;;;16.17;8.18;;;;;;;-144.87;100.00;61487.56;4986809;28;20143;-69
2023/06/11 00:34:10;;;;;;;11.75;7.50;;;;;;;-144.87;100.00;61487.56;4998449;28;20395;-69
2023/06/11 00:36:40;;;;;;;18.83;8.30;;;;;;;-144.87;100.00;61487.56;4986932;28;20048;-69
2023/06/11 00:39:06;;;;;;;17.13;9.27;;;;;;;-144.87;100.00;61487.56;4990047;28;20030;-68
2023/06/11 00:41:33;;;;;;;14.02;8.18;;;;;;;-144.87;100.00;61487.56;4992015;28;20038;-69
2023/06/11 00:44:00;;;;;;;13.77;8.20;;;;;;;-144.87;100.00;61487.56;5000775;28;20041;-73
2023/06/11 00:46:26;;;;;;;16.42;7.95;;;;;;;-144.87;100.00;61487.56;4986129;28;20058;-71
2023/06/11 00:48:52;;;;;;;18.00;8.52;;;;;;;-144.87;100.00;61487.56;4991160;28;20045;-70
2023/06/11 00:51:22;;;;;;;14.95;7.82;;;;;;;-144.87;100.00;61487.56;5009168;28;20041;-69
2023/06/11 00:53:51;;;;;;;9.10;7.63;;;;;;;-144.87;100.00;61487.56;5006082;28;20026;-69
2023/06/11 00:56:17;;;;;;;15.40;8.02;;;;;;;-144.87;100.00;61487.56;4992110;28;20110;-69
2023/06/11 00:58:49;;;;;;;13.60;8.07;;;;;;;-144.87;100.00;61487.56;4987437;28;20064;-69
2023/06/11 01:01:21;;;;;;;10.65;7.85;;;;;;;-144.87;100.00;61487.56;4975044;28;20035;-69
2023/06/11 01:03:52;;;;;;;13.25;8.18;;;;;;;-144.87;100.00;61487.56;4985180;28;20192;-69
2023/06/11 01:06:37;;;;;;;15.02;8.70;;;;;;;-144.87;100.00;61487.56;5017138;28;20033;-69
2023/06/11 01:09:07;;;;;;;15.73;8.80;;;;;;;-144.87;100.00;61487.56;5017298;28;20033;-70
2023/06/11 01:11:35;;;;;;;15.50;9.05;;;;;;;-144.87;100.00;61487.56;5009334;28;20033;-70
2023/06/11 01:14:05;;;;;;;16.30;8.68;;;;;;;-144.87;100.00;61487.56;5021081;28;20116;-69
2023/06/11 01:17:04;;;;;;;15.00;9.45;;;;;;;-144.87;100.00;61487.56;5023459;28;20041;-70
2023/06/11 01:19:33;;;;;;;14.93;9.38;;;;;;;-144.87;100.00;61487.56;5017570;28;20044;-69
2023/06/11 01:22:18;;;;;;;13.10;9.52;;;;;;;-144.87;100.00;61487.56;5015816;28;20084;-70
2023/06/11 01:24:58;;;;;;;15.40;9.50;;;;;;;-144.87;100.00;61487.56;5003034;28;20021;-69
2023/06/11 01:27:43;;;;;;;17.88;9.25;;;;;;;-144.87;100.00;61487.56;5022691;28;20033;-70
2023/06/11 01:30:17;;;;;;;16.17;9.13;;;;;;;-144.87;100.00;61487.56;5010842;28;20137;-70
2023/06/11 01:32:53;;;;;;;19.10;10.82;;;;;;;-144.87;100.00;61487.56;5014998;28;20062;-69
2023/06/11 01:35:22;;;;;;;13.82;9.57;;;;;;;-144.87;100.00;61487.56;5014641;28;20223;-69
2023/06/11 01:37:55;;;;;;;15.13;9.77;;;;;;;-144.87;100.00;61487.56;5026546;28;20042;-69
2023/06/11 01:40:24;;;;;;;18.27;9.65;;;;;;;-144.87;100.00;61487.56;5024273;28;20525;-70
2023/06/11 01:42:54;;;;;;;;;;;;;;;-144.87;100.00;61487.56;5019078;28;20030;-69
2023/06/11 01:45:22;;;;;;;19.88;9.52;;;;;;;-144.87;100.00;61487.56;5021543;28;19913;-70
2023/06/11 01:47:52;;;;;;;13.95;9.77;;;;;;;-144.87;100.00;61487.56;5008541;28;20160;-69
2023/06/11 01:50:20;;;;;;;13.73;9.38;;;;;;;-144.87;100.00;61487.56;5021717;28;20061;-69
2023/06/11 01:52:46;;;;;;;13.98;9.57;;;;;;;-144.87;100.00;61487.56;5022591;28;20120;-68
2023/06/11 01:55:13;;;;;;;19.90;10.07;;;;;;;-144.87;100.00;61487.56;5021130;28;20154;-69
2023/06/11 01:57:40;;;;;;;16.25;9.98;;;;;;;-144.87;100.00;61487.56;5014767;28;20066;-70
2023/06/11 02:00:10;;;;;;;14.25;9.52;;;;;;;-144.87;100.00;61487.56;5014957;28;20038;-69
2023/06/11 02:02:48;;;;;;;15.38;9.30;;;;;;;-144.87;100.00;61487.56;5022956;28;20029;-69
2023/06/11 02:05:17;;;;;;;14.25;10.13;;;;;;;-144.87;100.00;61487.56;5000241;28;20039;-69
2023/06/11 02:07:43;;;;;;;15.32;10.05;;;;;;;-144.87;100.00;61487.56;4994139;28;20094;-71
2023/06/11 02:10:09;;;;;;;13.70;9.88;;;;;;;-144.87;100.00;61487.56;4984712;28;20072;-70
2023/06/11 02:12:36;;;;;;;14.80;9.50;;;;;;;-144.87;100.00;61487.56;4975816;28;20599;-73
2023/06/11 02:15:04;;;;;;;19.00;10.45;;;;;;;-144.87;100.00;61487.56;4976352;28;20049;-71
2023/06/11 02:17:30;;;;;;;16.30;10.20;;;;;;;-144.87;100.00;61487.56;4979902;28;20034;-69
2023/06/11 02:19:57;;;;;;;16.92;10.05;;;;;;;-144.87;100.00;61487.56;4986725;28;20033;-69
2023/06/11 02:22:23;;;;;;;19.42;10.93;;;;;;;-144.87;100.00;61487.56;4984053;28;20022;-70
2023/06/11 02:24:51;;;;;;;16.17;9.98;;;;;;;-144.87;100.00;61487.56;4994482;28;20026;-70
2023/06/11 02:27:18;;;;;;;14.82;10.07;;;;;;;-144.87;100.00;61487.56;4981391;28;20049;-69
2023/06/11 02:29:44;;;;;;;14.30;10.82;;;;;;;-144.87;100.00;61487.56;4982163;28;20430;-70
2023/06/11 02:32:11;;;;;;;18.10;10.45;;;;;;;-144.87;100.00;61487.56;4963534;28;20056;-69
2023/06/11 02:34:38;;;;;;;17.27;10.82;;;;;;;-144.87;100.00;61487.56;4986141;28;20041;-69
2023/06/11 02:37:04;;;;;;;20.45;10.77;;;;;;;-144.87;100.00;61487.56;4998705;28;20498;-69
2023/06/11 02:39:31;;;;;;;14.90;10.98;;;;;;;-144.87;100.00;61487.56;4986742;28;20060;-71
2023/06/11 02:41:57;;;;;;;23.27;10.25;;;;;;;-144.87;100.00;61487.56;4990028;28;20121;-70
2023/06/11 02:44:23;;;;;;;15.85;10.75;;;;;;;-144.87;100.00;61487.56;4998112;28;20045;-71
2023/06/11 02:46:50;;;;;;;15.77;10.45;;;;;;;-144.87;100.00;61487.56;4974242;28;20494;-69
2023/06/11 02:49:16;;;;;;;15.90;10.82;;;;;;;-144.87;100.00;61487.56;4994263;28;20049;-69
2023/06/11 02:51:42;;;;;;;15.25;11.57;;;;;;;-144.87;100.00;61487.56;4972832;28;20491;-71
2023/06/11 02:54:08;;;;;;;18.48;11.68;;;;;;;-144.87;100.00;61487.56;4987568;28;20045;-71
2023/06/11 02:56:35;;;;;;;15.32;11.27;;;;;;;-144.87;100.00;61487.56;4980217;28;20060;-69
2023/06/11 02:59:01;;;;;;;18.00;11.32;;;;;;;-144.87;100.00;61487.56;4989833;28;20038;-70
2023/06/11 03:01:28;;;;;;;17.63;11.93;;;;;;;-144.87;100.00;61487.56;4997200;28;20041;-71
2023/06/11 03:03:54;;;;;;;24.70;11.98;;;;;;;-144.87;100.00;61487.56;4985004;28;20092;-68
2023/06/11 03:06:25;;;;;;;16.70;12.13;;;;;;;-144.87;100.00;61487.56;5005383;28;20034;-70
2023/06/11 03:08:53;;;;;;;24.38;11.80;;;;;;;-144.87;100.00;61487.56;5019880;28;20557;-70
2023/06/11 03:11:19;;;;;;;21.13;12.80;;;;;;;-144.87;100.00;61487.56;5021800;28;20037;-70
2023/06/11 03:13:47;;;;;;;18.80;12.30;;;;;;;-144.87;100.00;61487.56;5006109;28;20034;-69
2023/06/11 03:16:13;;;;;;;20.52;12.60;;;;;;;-144.87;100.00;61487.56;5015770;28;20037;-69
2023/06/11 03:18:39;;;;;;;18.77;13.07;;;;;;;-144.87;100.00;61487.56;5012720;28;20065;-70
2023/06/11 03:21:06;;;;;;;18.48;12.85;;;;;;;-144.87;100.00;61487.56;5010718;28;20139;-69
2023/06/11 03:23:32;;;;;;;20.60;13.57;;;;;;;-144.87;100.00;61487.56;5000413;28;20072;-70
2023/06/11 03:26:00;;;;;;;18.40;13.82;;;;;;;-144.87;100.00;61487.56;5022351;28;20088;-70
2023/06/11 03:28:32;;;;;;;16.60;13.13;;;;;;;-144.87;100.00;61487.56;5018361;28;20503;-70
2023/06/11 03:30:58;;;;;;;20.35;13.70;;;;;;;-144.87;100.00;61487.56;5019687;28;20045;-70
2023/06/11 03:33:25;;;;;;;20.77;14.27;;;;;;;-144.87;100.00;61487.56;5005202;28;20061;-69
2023/06/11 03:35:52;;;;;;;19.58;12.98;;;;;;;-144.87;100.00;61487.56;5003080;28;20621;-69
2023/06/11 03:38:23;;;;;;;;;;;;;;;-144.87;100.00;61487.56;5024125;28;20032;-70
2023/06/11 03:40:49;;;;;;;19.65;13.23;;;;;;;-144.87;100.00;61487.56;5005837;28;20004;-70
2023/06/11 03:43:16;;;;;;;16.67;13.13;;;;;;;-144.87;100.00;61487.56;5004711;28;20034;-70
2023/06/11 03:45:44;;;;;;;18.67;14.10;;;;;;;-144.87;100.00;61487.56;5000624;28;20034;-70
2023/06/11 03:48:10;;;;;;;16.55;14.05;;;;;;;-144.87;100.00;61487.56;5006565;28;20171;-69
2023/06/11 03:50:37;;;;;;;20.45;15.10;;;;;;;-144.87;100.00;61487.56;5021645;28;20045;-70
2023/06/11 03:53:03;;;;;;;18.77;14.18;;;;;;;-144.87;100.00;61487.56;5036870;28;20336;-70
2023/06/11 03:55:30;;;;;;;20.35;14.13;;;;;;;-144.87;100.00;61487.56;5006240;28;20498;-70
2023/06/11 03:57:56;;;;;;;24.67;14.07;;;;;;;-144.87;100.00;61487.56;5016781;28;20045;-69
2023/06/11 04:00:23;;;;;;;17.98;13.73;;;;;;;-144.87;100.00;61487.56;5019685;28;20041;-69
2023/06/11 04:02:49;;;;;;;22.00;13.88;;;;;;;-144.87;100.00;61487.56;5005299;28;20025;-70
2023/06/11 04:05:17;;;;;;;17.58;14.23;;;;;;;-144.87;100.00;61487.56;5015401;28;20045;-70
2023/06/11 04:07:50;;;;;;;19.90;13.90;;;;;;;-144.87;100.00;61487.56;5003973;28;20042;-71
2023/06/11 04:10:16;;;;;;;18.33;13.38;;;;;;;-144.87;100.00;61487.56;5019769;28;20117;-70
2023/06/11 04:12:43;;;;;;;21.75;13.82;;;;;;;-144.87;100.00;61487.56;5018465;28;20777;-70
2023/06/11 04:15:09;;;;;;;20.83;13.43;;;;;;;-144.87;100.00;61487.56;5015430;28;20092;-69
2023/06/11 04:17:36;;;;;;;19.00;13.43;;;;;;;-144.87;100.00;61487.56;5012937;28;20038;-70
2023/06/11 04:20:03;;;;;;;15.18;12.85;;;;;;;-144.87;100.00;61487.56;5017063;28;20114;-68
2023/06/11 04:22:29;;;;;;;17.88;13.35;;;;;;;-144.87;100.00;61487.56;5013288;28;20045;-70
2023/06/11 04:24:55;;;;;;;17.73;13.88;;;;;;;-144.87;100.00;61487.56;5033014;28;20045;-69
2023/06/11 04:27:22;;;;;;;15.82;13.05;;;;;;;-144.87;100.00;61487.56;5018006;28;20684;-69
2023/06/11 04:29:52;;;;;;;19.42;13.35;;;;;;;-144.87;100.00;61487.56;5018907;28;20044;-69
2023/06/11 04:32:20;;;;;;;15.30;12.80;;;;;;;-144.87;100.00;61487.56;5005655;28;20044;-70
2023/06/11 04:34:48;;;;;;;15.82;12.85;;;;;;;-144.87;100.00;61487.56;5013599;28;20038;-70
2023/06/11 04:37:16;;;;;;;14.93;12.02;;;;;;;-144.87;100.00;61487.56;5022405;28;20033;-69
2023/06/11 04:39:43;;;;;;;14.25;11.68;;;;;;;-144.87;100.00;61487.56;4997417;28;20037;-69
2023/06/11 04:42:11;;;;;;;14.48;12.13;;;;;;;-144.87;100.00;61487.56;4999750;28;20038;-70
2023/06/11 04:44:40;;;;;;;17.83;11.65;;;;;;;-144.87;100.00;61487.56;5004495;28;20261;-70
2023/06/11 04:47:08;;;;;;;13.60;11.63;;;;;;;-144.87;100.00;61487.56;5012269;28;20072;-70
2023/06/11 04:49:37;;;;;;;14.07;11.32;;;;;;;-144.87;100.00;61487.56;5010155;28;20109;-70
2023/06/11 04:52:04;;;;;;;18.88;12.05;;;;;;;-144.87;100.00;61487.56;5013913;28;20037;-70
2023/06/11 04:54:31;;;;;;;14.90;11.25;;;;;;;-144.87;100.00;61487.56;5021225;28;20498;-71
2023/06/11 04:57:01;;;;;;;21.40;11.52;;;;;;;-144.87;100.00;61487.56;5012142;28;20145;-70
2023/06/11 04:59:29;;;;;;;14.75;11.32;;;;;;;-144.87;100.00;61487.56;4996289;28;20045;-70
2023/06/11 05:01:56;;;;;;;13.60;11.38;;;;;;;-144.87;100.00;61487.56;5037620;28;20030;-71
2023/06/11 05:04:26;;;;;;;15.18;11.25;;;;;;;-144.87;100.00;61487.56;5042514;28;20065;-71
2023/06/11 05:06:54;;;;;;;13.75;11.20;;;;;;;-144.87;100.00;61487.56;5033052;28;20034;-70
2023/06/11 05:09:23;;;;;;;14.32;10.60;;;;;;;-144.87;100.00;61487.56;5032149;28;20030;-71
2023/06/11 05:11:50;;;;;;;13.02;10.77;;;;;;;-144.87;100.00;61487.56;5029556;28;20394;-70
2023/06/11 05:14:17;;;;;;;12.70;10.95;;;;;;;-144.87;100.00;61487.56;5028559;28;20036;-70
2023/06/11 05:16:45;;;;;;;14.65;11.23;;;;;;;-144.87;100.00;61487.56;5024098;28;20536;-70
2023/06/11 05:19:13;;;;;;;15.20;10.77;;;;;;;-144.87;100.00;61487.56;5015472;28;20129;-69
2023/06/11 05:21:40;;;;;;;14.60;11.13;;;;;;;-144.87;100.00;61487.56;5024883;28;20103;-70
2023/06/11 05:24:07;;;;;;;12.30;11.00;;;;;;;-144.87;100.00;61487.56;5021893;28;20065;-71
2023/06/11 05:26:37;;;;;;;14.77;10.73;;;;;;;-144.87;100.00;61487.56;5023172;28;20099;-71
2023/06/11 05:29:08;;;;;;;15.30;10.55;;;;;;;-144.87;100.00;61487.56;5014942;28;20062;-69
2023/06/11 05:31:35;;;;;;;12.73;10.80;;;;;;;-144.87;100.00;61487.56;5004722;28;20056;-71
2023/06/11 05:34:03;;;;;;;15.63;10.57;;;;;;;-144.87;100.00;61487.56;5024227;28;20034;-69
2023/06/11 05:36:30;;;;;;;14.48;10.32;;;;;;;-144.87;100.00;61487.56;5024807;28;20437;-69
2023/06/11 05:38:57;;;;;;;14.43;10.50;;;;;;;-144.87;100.00;61487.56;5008269;28;20822;-71
2023/06/11 05:41:24;;;;;;;16.02;10.52;;;;;;;-144.87;100.00;61487.56;4986410;28;20060;-70
2023/06/11 05:43:51;;;;;;;12.35;10.43;;;;;;;-144.87;100.00;61487.56;5017166;28;20092;-70
2023/06/11 05:46:18;;;;;;;12.50;9.90;;;;;;;-144.87;100.00;61487.56;5017978;28;20096;-70
2023/06/11 05:48:47;;;;;;;14.05;9.40;;;;;;;-144.87;100.00;61487.56;5007456;28;20173;-70
2023/06/11 05:51:14;;;;;;;14.45;9.88;;;;;;;-144.87;100.00;61487.56;5019859;28;20033;-71
2023/06/11 05:53:40;;;;;;;12.07;9.23;;;;;;;-144.87;100.00;61487.56;5013751;28;20053;-71
2023/06/11 05:56:07;;;;;;;12.15;9.23;;;;;;;-144.87;100.00;61487.56;5005539;28;20105;-71
2023/06/11 05:58:36;;;;;;;15.63;9.10;;;;;;;-144.87;100.00;61487.56;5010340;28;20068;-70
2023/06/11 06:01:06;;;;;;;15.13;9.23;;;;;;;-144.87;100.00;61487.56;5007169;28;20034;-70
2023/06/11 06:03:36;;;;;;;12.30;9.32;;;;;;;-144.87;100.00;61487.56;5020974;28;20069;-70
2023/06/11 06:06:03;;;;;;;12.43;9.10;;;;;;;-144.87;100.00;61487.56;4987355;28;20077;-70
2023/06/11 06:08:31;;;;;;;12.25;9.32;;;;;;;-144.87;100.00;61487.56;4979346;28;20505;-69
2023/06/11 06:10:59;;;;;;;12.30;9.07;;;;;;;-144.87;100.00;61487.56;4982602;28;20042;-71
2023/06/11 06:13:26;;;;;;;11.25;9.50;;;;;;;-144.87;100.00;61487.56;4988195;28;20037;-69
2023/06/11 06:15:56;;;;;;;11.07;9.52;;;;;;;-144.87;100.00;61487.56;4975669;28;20040;-69
2023/06/11 06:18:27;;;;;;;11.68;8.52;;;;;;;-144.87;100.00;61487.56;4977140;28;20056;-71
2023/06/11 06:20:53;;;;;;;11.48;8.40;;;;;;;-144.87;100.00;61487.56;4976566;28;20518;-76
2023/06/11 06:23:21;;;;;;;12.10;8.65;;;;;;;-144.87;100.00;61487.56;4976281;28;20742;-71
2023/06/11 06:25:58;;;;;;;13.63;8.80;;;;;;;-144.87;100.00;61487.56;4978245;28;20113;-71
2023/06/11 06:28:25;;;;;;;13.57;8.50;;;;;;;-144.87;100.00;61487.56;4990459;28;20085;-71
2023/06/11 06:30:51;;;;;;;13.15;9.20;;;;;;;-144.87;100.00;61487.56;4973442;28;20062;-70
2023/06/11 06:33:19;;;;;;;13.27;8.20;;;;;;;-144.87;100.00;61487.56;4997616;28;20050;-71
2023/06/11 06:35:45;;;;;;;18.63;8.52;;;;;;;-144.87;100.00;61487.56;4983067;28;20076;-70
2023/06/11 06:38:12;;;;;;;10.15;8.00;;;;;;;-144.87;100.00;61487.56;4972667;28;20042;-71
2023/06/11 06:40:41;;;;;;;14.65;7.95;;;;;;;-144.87;100.00;61487.56;4993583;28;20483;-72
2023/06/11 06:43:07;;;;;;;10.40;7.85;;;;;;;-144.87;100.00;61487.56;4963116;28;20092;-70
2023/06/11 06:45:35;;;;;;;14.57;8.50;;;;;;;-144.87;100.00;61487.56;5004758;28;20233;-71
2023/06/11 06:48:10;;;;;;;10.80;7.72;;;;;;;-144.87;100.00;61487.56;4991060;28;20031;-69
2023/06/11 06:50:37;;;;;;;9.85;8.00;;;;;;;-144.87;100.00;61487.56;4991539;28;20030;-70
2023/06/11 06:53:03;;;;;;;11.13;8.20;;;;;;;-144.87;100.00;61487.56;4976217;28;20026;-69
2023/06/11 06:55:30;;;;;;;10.50;7.63;;;;;;;-144.87;100.00;61487.56;4976002;28;20131;-70
2023/06/11 06:58:02;;;;;;;12.45;8.02;;;;;;;-144.87;100.00;61487.56;4982182;28;20057;-70
2023/06/11 07:00:29;;;;;;;9.23;7.28;;;;;;;-144.87;100.00;61487.56;4971068;28;20034;-71
2023/06/11 07:02:56;;;;;;;10.73;7.60;;;;;;;-144.87;100.00;61487.56;4958308;28;20104;-70
2023/06/11 07:05:23;;;;;;;13.45;7.53;;;;;;;-144.87;100.00;61487.56;5007736;28;20049;-71
2023/06/11 07:07:51;;;;;;;11.82;8.02;;;;;;;-144.87;100.00;61487.56;4994080;28;20534;-70
2023/06/11 07:10:18;;;;;;;10.80;7.85;;;;;;;-144.87;100.00;61487.56;5021962;28;20027;-70
2023/06/11 07:12:44;;;;;;;16.08;8.20;;;;;;;-144.87;100.00;61487.56;5013018;28;20066;-70
2023/06/11 07:15:11;;;;;;;10.45;7.68;;;;;;;-144.87;100.00;61487.56;5014716;28;20375;-70
2023/06/11 07:17:38;;;;;;;14.13;7.78;;;;;;;-144.87;100.00;61487.56;5001294;28;20038;-69
2023/06/11 07:20:07;;;;;;;9.82;7.38;;;;;;;-144.87;100.00;61487.56;5032211;28;20145;-71
2023/06/11 07:22:33;;;;;;;11.40;7.63;;;;;;;-144.87;100.00;61487.56;5034710;28;20112;-70
2023/06/11 07:25:01;;;;;;;11.88;7.60;;;;;;;-144.87;100.00;61487.56;5032200;28;20064;-71
2023/06/11 07:27:27;;;;;;;13.27;7.57;;;;;;;-144.87;100.00;61487.56;5013601;28;20033;-71
2023/06/11 07:29:54;;;;;;;8.98;7.10;;;;;;;-144.87;100.00;61487.56;5013304;28;20048;-70
2023/06/11 07:32:21;;;;;;;10.02;6.72;;;;;;;-144.87;100.00;61487.56;5029802;28;20033;-70
2023/06/11 07:34:47;;;;;;;8.43;7.40;;;;;;;-144.87;100.00;61487.56;5010290;28;20495;-71
2023/06/11 07:37:14;;;;;;;10.68;7.38;;;;;;;-144.87;100.00;61487.56;4993889;28;20042;-70
2023/06/11 07:39:41;;;;;;;8.73;7.10;;;;;;;-144.87;100.00;61487.56;5010523;28;20042;-70
2023/06/11 07:42:07;;;;;;;9.30;7.35;;;;;;;-144.87;100.00;61487.56;5023246;28;20376;-70
2023/06/11 07:44:34;;;;;;;8.90;7.43;;;;;;;-144.87;100.00;61487.56;5009858;28;20046;-70
2023/06/11 07:47:00;;;;;;;10.02;6.90;;;;;;;-144.87;100.00;61487.56;5010229;28;20103;-69
2023/06/11 07:49:26;;;;;;;8.57;7.28;;;;;;;-144.87;100.00;61487.56;5011474;28;20044;-71
2023/06/11 07:51:53;;;;;;;12.80;6.90;;;;;;;-144.87;100.00;61487.56;5028785;28;20049;-70
2023/06/11 07:54:19;;;;;;;9.07;7.18;;;;;;;-144.87;100.00;61487.56;4998306;28;20037;-68
2023/06/11 07:56:46;;;;;;;10.80;6.90;;;;;;;-144.87;100.00;61487.56;5035974;28;20073;-70
2023/06/11 07:59:13;;;;;;;11.48;6.97;;;;;;;-144.87;100.00;61487.56;5037631;28;20080;-70
2023/06/11 08:01:40;;;;;;;10.27;7.40;;;;;;;-144.87;100.00;61487.56;5037133;28;20033;-70
2023/06/11 08:04:06;;;;;;;11.23;7.32;;;;;;;-144.87;100.00;61487.56;5028448;28;20527;-70
2023/06/11 08:06:33;;;;;;;8.43;7.07;;;;;;;-144.87;100.00;61487.56;4996384;28;20417;-71
2023/06/11 08:08:59;;;;;;;9.52;7.35;;;;;;;-144.87;100.00;61487.56;5010805;28;20049;-70
2023/06/11 08:11:26;;;;;;;13.75;7.18;;;;;;;-144.87;100.00;61487.56;4992908;28;20042;-71
2023/06/11 08:13:52;;;;;;;14.32;7.05;;;;;;;-144.87;100.00;61487.56;4993379;28;20034;-71
2023/06/11 08:16:18;;;;;;;12.13;7.43;;;;;;;-144.87;100.00;61487.56;4989061;28;20037;-71
2023/06/11 08:18:45;;;;;;;8.93;7.15;;;;;;;-144.87;100.00;61487.56;4973720;28;20038;-71
2023/06/11 08:21:11;;;;;;;9.70;7.47;;;;;;;-144.87;100.00;61487.56;4958019;28;20404;-70
2023/06/11 08:23:39;;;;;;;11.23;6.97;;;;;;;-144.87;100.00;61487.56;4990863;28;20129;-71
2023/06/11 08:26:06;;;;;;;8.35;7.05;;;;;;;-144.87;100.00;61487.56;4974986;28;20034;-72
2023/06/11 08:28:32;;;;;;;12.73;7.53;;;;;;;-144.87;100.00;61487.56;4977348;28;20049;-71
2023/06/11 08:30:59;;;;;;;10.27;7.53;;;;;;;-144.87;100.00;61487.56;5007391;28;20045;-71
2023/06/11 08:33:25;;;;;;;10.55;7.47;;;;;;;-144.87;100.00;61487.56;4997214;28;20058;-71
2023/06/11 08:35:51;;;;;;;9.65;7.03;;;;;;;-144.87;100.00;61487.56;5017673;28;20034;-71
2023/06/11 08:38:18;;;;;;;13.77;7.10;;;;;;;-144.87;100.00;61487.56;5022281;28;20112;-70
2023/06/11 08:40:44;;;;;;;11.02;7.40;;;;;;;-144.87;100.00;61487.56;5025237;28;20042;-69
2023/06/11 08:43:10;;;;;;;9.82;6.85;;;;;;;-144.87;100.00;61487.56;4987073;28;20037;-69
2023/06/11 08:45:37;;;;;;;9.90;7.60;;;;;;;-144.87;100.00;61487.56;5000355;28;20435;-71
2023/06/11 08:48:05;;;;;;;7.88;6.95;;;;;;;-144.87;100.00;61487.56;4995108;28;20053;-70
2023/06/11 08:50:32;;;;;;;9.93;7.13;;;;;;;-144.87;100.00;61487.56;4977103;28;20030;-70
2023/06/11 08:53:01;;;;;;;8.70;7.00;;;;;;;-144.87;100.00;61487.56;4994600;28;20106;-71
2023/06/11 08:55:29;;;;;;;9.00;7.18;;;;;;;-144.87;100.00;61487.56;4977796;28;20045;-71
2023/06/11 08:57:55;;;;;;;11.48;7.45;;;;;;;-144.87;100.00;61487.56;4994923;28;20035;-70
2023/06/11 09:00:22;;;;;;;10.13;7.50;;;;;;;-144.87;100.00;61487.56;4973276;28;20115;-72
2023/06/11 09:02:49;;;;;;;10.52;8.15;;;;;;;-144.87;100.00;61487.56;5014228;28;20038;-70
2023/06/11 09:05:15;;;;;;;8.85;7.85;;;;;;;-144.87;100.00;61487.56;5023761;28;20089;-71
2023/06/11 09:07:52;;;;;;;10.32;7.97;;;;;;;-144.87;100.00;61487.56;4996917;28;20380;-71
2023/06/11 09:10:19;;;;;;;8.48;7.35;;;;;;;-144.87;100.00;61487.56;5003822;28;20463;-69
2023/06/11 09:12:48;;;;;;;8.57;7.57;;;;;;;-144.87;100.00;61487.56;5008680;28;20034;-73
2023/06/11 09:15:15;;;;;;;9.02;7.97;;;;;;;-144.87;100.00;61487.56;4993403;28;20046;-70
2023/06/11 09:17:44;;;;;;;11.85;7.72;;;;;;;-144.87;100.00;61487.56;4982979;28;20030;-71
2023/06/11 09:20:13;;;;;;;12.05;7.20;;;;;;;-144.87;100.00;61487.56;4984094;28;20113;-74
2023/06/11 09:22:42;;;;;;;14.10;7.75;;;;;;;-144.87;100.00;61487.56;4984348;28;20467;-73
2023/06/11 09:25:10;;;;;;;10.40;7.75;;;;;;;-144.87;100.00;61487.56;4964981;28;20041;-71
2023/06/11 09:27:40;;;;;;;11.88;7.55;;;;;;;-144.87;100.00;61487.56;4978718;28;20066;-70
2023/06/11 09:30:07;;;;;;;9.90;7.35;;;;;;;-144.87;100.00;61487.56;4976246;28;20049;-71
2023/06/11 09:32:40;;;;;;;10.20;7.55;;;;;;;-144.87;100.00;61487.56;4994206;28;20370;-70
2023/06/11 09:35:08;;;;;;;11.98;7.18;;;;;;;-144.87;100.00;61487.56;4993978;28;20046;-72
2023/06/11 09:37:44;;;;;;;9.98;7.30;;;;;;;-144.87;100.00;61487.56;4993285;28;20180;-69
2023/06/11 09:40:14;;;;;;;13.40;7.28;;;;;;;-144.87;100.00;61487.56;4993536;28;20034;-71
2023/06/11 09:42:43;;;;;;;;;;;;;;;-144.87;100.00;61487.56;5014103;28;20104;-69
2023/06/11 09:45:19;;;;;;;10.90;7.22;;;;;;;-144.87;100.00;61487.56;5012278;28;19928;-71
2023/06/11 09:47:46;;;;;;;9.40;7.32;;;;;;;-144.87;100.00;61487.56;4992128;28;20057;-71
2023/06/11 09:50:15;;;;;;;10.00;7.03;;;;;;;-144.87;100.00;61487.56;4975857;28;20034;-69
2023/06/11 09:52:43;;;;;;;10.20;7.93;;;;;;;-144.87;100.00;61487.56;4976756;28;20045;-70
2023/06/11 09:55:10;;;;;;;9.13;7.57;;;;;;;-144.87;100.00;61487.56;4980645;28;20046;-71
2023/06/11 09:57:40;;;;;;;7.55;6.72;;;;;;;-144.87;100.00;61487.56;4984115;28;20038;-70
2023/06/11 10:00:12;;;;;;;9.30;6.18;;;;;;;-144.87;100.00;61487.56;4969229;28;20032;-70
2023/06/11 10:02:42;;;;;;;8.02;6.50;;;;;;;-144.87;100.00;61487.56;4981965;28;20491;-71
2023/06/11 10:05:10;;;;;;;11.60;6.82;;;;;;;-144.87;100.00;61487.56;4994827;28;20050;-71
2023/06/11 10:07:42;;;;;;;13.18;6.90;;;;;;;-144.87;100.00;61487.56;4959836;28;20054;-70
2023/06/11 10:10:11;;;;;;;11.02;6.47;;;;;;;-144.87;100.00;61487.56;4993254;28;20076;-70
2023/06/11 10:12:38;;;;;;;9.55;6.53;;;;;;;-144.87;100.00;61487.56;4975606;28;20038;-70
2023/06/11 10:15:05;;;;;;;9.30;6.47;;;;;;;-144.87;100.00;61487.56;4975736;28;20042;-71
2023/06/11 10:17:32;;;;;;;7.90;6.82;;;;;;;-144.87;100.00;61487.56;4959741;28;20045;-71
2023/06/11 10:19:58;;;;;;;9.05;6.10;;;;;;;-144.87;100.00;61487.56;4976165;28;20035;-70
2023/06/11 10:22:34;;;;;;;9.30;6.20;;;;;;;-144.87;100.00;61487.56;4994095;28;20129;-70
2023/06/11 10:25:02;;;;;;;8.68;6.45;;;;;;;-144.87;100.00;61487.56;4975676;28;20096;-71
2023/06/11 10:27:40;;;;;;;10.90;6.55;;;;;;;-144.87;100.00;61487.56;4976607;28;20060;-70
2023/06/11 10:30:08;;;;;;;10.23;6.55;;;;;;;-144.87;100.00;61487.56;4985863;28;20030;-71
2023/06/11 10:32:34;;;;;;;7.90;6.80;;;;;;;-144.87;100.00;61487.56;4980534;28;20098;-70
2023/06/11 10:35:05;;;;;;;8.20;6.90;;;;;;;-144.87;100.00;61487.56;5001153;28;20046;-71
2023/06/11 10:37:40;;;;;;;14.00;6.15;;;;;;;-144.87;100.00;61487.56;4984656;28;20041;-70
2023/06/11 10:40:08;;;;;;;10.85;6.53;;;;;;;-144.87;100.00;61487.56;5008737;28;20095;-70
2023/06/11 10:42:39;;;;;;;6.65;6.00;;;;;;;-144.87;100.00;61487.56;4994493;28;20045;-71
2023/06/11 10:45:10;;;;;;;10.23;6.35;;;;;;;-144.87;100.00;61487.56;5000862;28;20686;-70
2023/06/11 10:47:43;;;;;;;11.65;6.68;;;;;;;-144.87;100.00;61487.56;5005789;28;20061;-70
2023/06/11 10:50:12;;;;;;;7.65;5.70;;;;;;;-144.87;100.00;61487.56;5009957;28;20093;-68
2023/06/11 10:52:53;;;;;;;11.30;6.47;;;;;;;-144.87;100.00;61487.56;5010035;28;20022;-68
2023/06/11 10:55:21;;;;;;;9.88;6.80;;;;;;;-144.87;100.00;61487.56;5010134;28;20046;-69
2023/06/11 10:57:52;;;;;;;8.77;6.90;;;;;;;-144.87;100.00;61487.56;4991873;28;20184;-70
2023/06/11 11:00:19;;;;;;;9.05;7.13;;;;;;;-144.87;100.00;61487.56;5009720;28;20065;-70
2023/06/11 11:02:46;;;;;;;11.40;7.00;;;;;;;-144.87;100.00;61487.56;4988798;28;20035;-69
2023/06/11 11:05:12;;;;;;;7.85;6.50;;;;;;;-144.87;100.00;61487.56;5026499;28;20056;-69
2023/06/11 11:07:44;;;;;;;9.65;6.75;;;;;;;-144.87;100.00;61487.56;5001010;28;20379;-69